Time;durP1;ratioP1;P1;durP2;ratioP2;P2;SDS_P1;SDS_P2;PMS_P1;PMS_P2;Temp;Humidity;BMP_temperature;BMP_pressure;BME280_temperature;BME280_humidity;BME280_pressure;Samples;Min_cycle;Max_cycle;Signal;HPM_P1;HPM_P2
2023/01/06 00:01:17;;;;;;;5.33;3.07;;;;;;;17.56;57.17;101798.03;5103485;28;20035;-67
2023/01/06 00:03:46;;;;;;;9.93;2.67;;;;;;;19.26;52.17;101783.69;5091905;28;20107;-68
2023/01/06 00:06:12;;;;;;;7.10;2.50;;;;;;;18.09;55.15;101795.84;5111603;28;20039;-67
2023/01/06 00:08:39;;;;;;;6.90;2.80;;;;;;;17.79;56.76;101793.03;5094969;28;20073;-67
2023/01/06 00:11:10;;;;;;;7.87;3.27;;;;;;;17.98;57.89;101784.66;5112865;27;20164;-67
2023/01/06 00:13:35;;;;;;;7.60;3.57;;;;;;;18.34;55.42;101781.94;5092903;28;20024;-67
2023/01/06 00:16:06;;;;;;;5.90;2.80;;;;;;;18.18;56.19;101775.34;5094865;28;20019;-68
2023/01/06 00:18:32;;;;;;;12.43;3.10;;;;;;;18.69;54.50;101777.41;5112035;28;20015;-68
2023/01/06 00:20:58;;;;;;;9.90;3.30;;;;;;;17.74;57.49;101776.41;5094903;28;20364;-68
2023/01/06 00:23:24;;;;;;;6.70;3.10;;;;;;;18.62;54.41;101781.16;5092583;28;20023;-68
2023/01/06 00:25:50;;;;;;;9.27;2.70;;;;;;;19.18;51.86;101777.75;5120263;27;20467;-68
2023/01/06 00:28:16;;;;;;;7.37;3.03;;;;;;;17.71;56.80;101781.78;5114750;27;20031;-67
2023/01/06 00:30:41;;;;;;;5.40;2.63;;;;;;;18.23;55.77;101768.13;5108296;28;20027;-67
2023/01/06 00:33:06;;;;;;;7.30;2.63;;;;;;;17.56;57.50;101777.72;5093035;28;20445;-67
2023/01/06 00:35:32;;;;;;;8.77;3.10;;;;;;;19.05;53.06;101760.50;5092529;28;20122;-67
2023/01/06 00:37:57;;;;;;;6.57;3.07;;;;;;;18.01;55.72;101768.72;5094578;28;20019;-67
2023/01/06 00:40:22;;;;;;;5.43;2.90;;;;;;;18.19;55.55;101771.75;5109495;27;20406;-67
2023/01/06 00:42:48;;;;;;;8.50;2.60;;;;;;;18.75;53.23;101764.00;5102998;28;20115;-68
2023/01/06 00:45:14;;;;;;;10.73;3.50;;;;;;;18.09;56.52;101757.91;5111440;28;20040;-68
2023/01/06 00:47:39;;;;;;;10.77;2.77;;;;;;;17.35;57.73;101765.91;5093657;28;20061;-67
2023/01/06 00:50:05;;;;;;;6.63;3.20;;;;;;;18.38;54.65;101765.06;5104435;27;20074;-67
2023/01/06 00:52:30;;;;;;;7.80;3.23;;;;;;;17.03;58.31;101764.00;5093063;28;20027;-67
2023/01/06 00:54:55;;;;;;;6.00;2.63;;;;;;;18.76;53.01;101763.06;5110783;28;20035;-67
2023/01/06 00:57:21;;;;;;;9.90;3.27;;;;;;;18.12;54.84;101765.75;5093442;28;20011;-67
2023/01/06 00:59:46;;;;;;;8.17;2.60;;;;;;;17.91;55.81;101757.47;5093427;28;20110;-67
2023/01/06 01:02:12;;;;;;;6.20;2.47;;;;;;;18.62;53.85;101755.53;5108619;28;20403;-66
2023/01/06 01:04:37;;;;;;;4.50;2.20;;;;;;;17.24;56.71;101750.31;5103822;28;20027;-67
2023/01/06 01:07:02;;;;;;;6.53;2.47;;;;;;;19.07;52.62;101745.41;5111456;27;20371;-68
2023/01/06 01:09:30;;;;;;;9.10;3.10;;;;;;;18.74;54.15;101749.03;5109583;27;20055;-69
2023/01/06 01:12:09;;;;;;;5.37;2.43;;;;;;;18.86;51.30;101742.47;5111405;28;20479;-67
2023/01/06 01:14:51;;;;;;;8.53;3.00;;;;;;;19.34;51.52;101738.38;5088542;28;20573;-68
2023/01/06 01:17:22;;;;;;;5.20;2.50;;;;;;;19.85;49.61;101733.19;5093399;28;20024;-68
2023/01/06 01:19:50;;;;;;;6.67;2.70;;;;;;;19.33;50.11;101737.50;5112063;28;20036;-68
2023/01/06 01:22:15;;;;;;;12.17;3.03;;;;;;;17.77;54.98;101749.88;5109113;28;20058;-68
2023/01/06 01:24:41;;;;;;;5.43;2.40;;;;;;;17.27;57.06;101752.00;5114682;27;20406;-67
2023/01/06 01:27:07;;;;;;;9.93;2.60;;;;;;;18.06;53.50;101740.34;5092029;28;20027;-67
2023/01/06 01:29:33;;;;;;;6.17;2.33;;;;;;;17.63;55.24;101736.16;5110591;28;20036;-67
2023/01/06 01:31:58;;;;;;;4.37;2.50;;;;;;;18.21;54.27;101744.34;5111676;28;20088;-68
2023/01/06 01:34:25;;;;;;;5.00;2.23;;;;;;;18.02;53.65;101736.03;5090953;28;20039;-68
2023/01/06 01:36:52;;;;;;;5.50;2.60;;;;;;;17.99;54.43;101738.78;5112301;27;20157;-67
2023/01/06 01:39:21;;;;;;;7.83;2.43;;;;;;;18.64;53.29;101724.59;5113407;27;20474;-67
2023/01/06 01:41:47;;;;;;;5.80;2.40;;;;;;;17.16;56.23;101727.59;5113741;27;20027;-68
2023/01/06 01:44:50;;;;;;;4.27;2.33;;;;;;;18.42;53.72;101715.53;5108245;27;20024;-67
2023/01/06 01:47:20;;;;;;;7.60;3.15;;;;;;;17.64;55.75;101714.97;5072452;28;20036;-68
2023/01/06 01:49:48;;;;;;;5.50;2.33;;;;;;;17.63;54.47;101709.72;5072524;28;20028;-68
2023/01/06 01:52:14;;;;;;;7.13;2.53;;;;;;;17.33;56.58;101719.28;5089635;27;20023;-67
2023/01/06 01:54:41;;;;;;;8.13;2.47;;;;;;;17.68;55.92;101718.41;5091528;28;20020;-67
2023/01/06 01:57:15;;;;;;;9.00;2.33;;;;;;;18.11;54.40;101696.13;5091109;28;20022;-67
2023/01/06 01:59:43;;;;;;;8.60;2.57;;;;;;;18.17;53.04;101688.94;5092836;28;20467;-68
2023/01/06 02:02:08;;;;;;;5.40;2.00;;;;;;;18.54;52.22;101677.28;5110989;28;20075;-67
2023/01/06 02:04:38;;;;;;;6.17;2.13;;;;;;;18.13;52.95;101673.16;5099105;27;20118;-67
2023/01/06 02:07:04;;;;;;;7.87;2.20;;;;;;;18.09;53.91;101676.78;5092748;28;20019;-68
2023/01/06 02:10:12;;;;;;;4.10;1.90;;;;;;;17.74;54.59;101681.22;5109172;28;20108;-68
2023/01/06 02:12:39;;;;;;;7.53;2.30;;;;;;;17.17;56.62;101673.88;5109612;28;20019;-67
2023/01/06 02:15:14;;;;;;;3.13;1.87;;;;;;;17.67;54.02;101665.53;5092845;28;20046;-67
2023/01/06 02:17:53;;;;;;;5.20;2.30;;;;;;;17.98;53.41;101660.34;5092267;28;20020;-67
2023/01/06 02:20:24;;;;;;;4.13;1.70;;;;;;;18.34;53.31;101660.22;5092625;28;20122;-67
2023/01/06 02:23:05;;;;;;;5.00;1.80;;;;;;;18.37;52.05;101656.56;5090974;28;20035;-68
2023/01/06 02:25:55;;;;;;;7.40;1.87;;;;;;;18.21;52.06;101659.69;5090414;28;20031;-69
2023/01/06 02:28:39;;;;;;;5.53;2.17;;;;;;;18.48;51.11;101652.72;5121986;28;20047;-68
2023/01/06 02:31:31;;;;;;;6.77;1.80;;;;;;;18.18;52.01;101635.97;5072561;28;20064;-67
2023/01/06 02:34:02;;;;;;;5.15;1.80;;;;;;;18.40;51.64;101628.25;5100515;28;20102;-68
2023/01/06 02:36:51;;;;;;;4.27;2.00;;;;;;;18.14;52.00;101631.69;5090648;28;20556;-68
2023/01/06 02:39:56;;;;;;;12.47;2.50;;;;;;;18.52;50.89;101639.38;5071573;28;20458;-67
2023/01/06 02:42:47;;;;;;;4.87;1.40;;;;;;;17.66;54.08;101637.41;5090238;28;20074;-67
2023/01/06 02:45:51;;;;;;;7.13;1.87;;;;;;;17.17;54.79;101626.31;5086037;28;20066;-67
2023/01/06 02:48:34;;;;;;;6.20;1.77;;;;;;;17.36;55.07;101617.00;5072192;28;20104;-68
2023/01/06 02:51:41;;;;;;;5.70;1.40;;;;;;;17.99;51.08;101590.66;5090311;28;20039;-68
2023/01/06 02:54:24;;;;;;;6.40;1.83;;;;;;;17.97;51.89;101587.22;5042605;28;20091;-68
2023/01/06 02:57:01;;;;;;;6.80;2.07;;;;;;;18.33;51.22;101584.38;5109202;28;20035;-68
2023/01/06 02:59:34;;;;;;;2.43;1.27;;;;;;;17.30;54.63;101596.06;5091277;28;20574;-67
2023/01/06 03:02:02;;;;;;;4.63;1.27;;;;;;;17.81;52.10;101582.31;5091302;28;20047;-67
2023/01/06 03:04:34;;;;;;;7.47;1.77;;;;;;;19.15;49.03;101564.09;5090316;28;20034;-68
2023/01/06 03:07:03;;;;;;;5.18;1.10;;;;;;;18.03;50.81;101581.72;5092723;28;20032;-68
2023/01/06 03:09:33;;;;;;;4.40;1.40;;;;;;;18.40;49.78;101580.63;5095963;28;20118;-68
2023/01/06 03:12:05;;;;;;;4.37;1.20;;;;;;;17.85;51.12;101587.53;5112129;28;20098;-67
2023/01/06 03:14:44;;;;;;;4.33;1.23;;;;;;;18.67;49.43;101582.44;5127681;27;20031;-68
2023/01/06 03:17:10;;;;;;;4.40;1.13;;;;;;;18.42;49.38;101584.09;5095955;28;20076;-68
2023/01/06 03:19:35;;;;;;;7.57;1.10;;;;;;;17.76;51.08;101581.59;5113467;28;20118;-68
2023/01/06 03:22:02;;;;;;;3.67;1.00;;;;;;;17.80;52.06;101572.66;5094793;28;20106;-68
2023/01/06 03:24:27;;;;;;;5.17;1.47;;;;;;;19.29;47.73;101573.34;5095565;28;20078;-68
2023/01/06 03:26:53;;;;;;;3.60;1.47;;;;;;;18.98;48.74;101577.03;5095094;27;20485;-68
2023/01/06 03:29:20;;;;;;;5.20;1.57;;;;;;;18.09;50.69;101570.97;5110257;28;20031;-67
2023/01/06 03:31:59;;;;;;;3.40;1.30;;;;;;;18.26;50.69;101566.97;5113833;28;20023;-67
2023/01/06 03:35:02;;;;;;;7.60;1.50;;;;;;;17.81;51.71;101555.00;5113866;28;20024;-67
2023/01/06 03:37:34;;;;;;;6.13;1.63;;;;;;;18.74;49.28;101545.13;5092414;28;20082;-67
2023/01/06 03:40:29;;;;;;;3.95;1.40;;;;;;;18.53;50.53;101537.88;5110804;27;20027;-67
2023/01/06 03:43:10;;;;;;;6.10;1.50;;;;;;;16.96;54.23;101544.09;5115295;27;20063;-67
2023/01/06 03:45:40;;;;;;;8.00;1.63;;;;;;;17.79;51.39;101541.84;5106933;28;20035;-67
2023/01/06 03:48:18;;;;;;;2.90;1.20;;;;;;;18.37;50.93;101537.50;5111926;27;20031;-66
2023/01/06 03:50:51;;;;;;;5.87;1.50;;;;;;;18.03;51.29;101543.84;5094976;28;20028;-67
2023/01/06 03:53:28;;;;;;;5.22;1.42;;;;;;;17.67;53.06;101531.63;5093151;28;20612;-67
2023/01/06 03:56:11;;;;;;;6.47;1.53;;;;;;;18.24;52.59;101529.06;5100697;28;20152;-67
2023/01/06 03:58:38;;;;;;;2.40;1.10;;;;;;;17.99;51.92;101527.19;5095008;28;20023;-67
2023/01/06 04:01:04;;;;;;;3.37;1.40;;;;;;;17.81;52.38;101537.34;5113418;28;20016;-67
2023/01/06 04:03:30;;;;;;;4.83;1.23;;;;;;;17.32;54.41;101536.09;5094440;28;20114;-67
2023/01/06 04:05:55;;;;;;;3.10;1.00;;;;;;;17.91;53.05;101534.44;5092108;28;20111;-67
2023/01/06 04:08:20;;;;;;;2.60;1.20;;;;;;;17.31;54.97;101521.16;5097146;28;20048;-68
2023/01/06 04:10:46;;;;;;;2.83;1.10;;;;;;;16.86;55.94;101526.72;5093755;28;20084;-67
2023/01/06 04:13:11;;;;;;;2.43;1.20;;;;;;;18.23;52.55;101520.28;5094582;28;20110;-67
2023/01/06 04:15:37;;;;;;;3.07;1.10;;;;;;;17.88;52.65;101502.81;5111220;27;20027;-67
2023/01/06 04:18:02;;;;;;;4.23;1.20;;;;;;;16.90;56.52;101528.41;5093314;28;20019;-68
2023/01/06 04:20:29;;;;;;;6.83;1.60;;;;;;;17.39;54.62;101505.97;5112934;28;20027;-68
2023/01/06 04:22:56;;;;;;;7.47;1.77;;;;;;;17.68;54.25;101506.91;5123902;27;20098;-68
2023/01/06 04:25:22;;;;;;;4.83;1.70;;;;;;;17.92;52.63;101515.91;5109016;28;20436;-67
2023/01/06 04:27:48;;;;;;;3.87;1.37;;;;;;;17.60;54.33;101493.06;5093323;28;20088;-67
2023/01/06 04:30:14;;;;;;;6.80;1.63;;;;;;;16.83;55.98;101495.97;5094325;28;20028;-68
2023/01/06 04:32:39;;;;;;;8.43;3.10;;;;;;;17.91;52.69;101493.03;5094200;28;20020;-67
2023/01/06 04:35:06;;;;;;;2.23;1.10;;;;;;;17.52;53.94;101484.47;5093749;28;20482;-68
2023/01/06 04:37:32;;;;;;;2.00;1.27;;;;;;;16.99;55.76;101480.63;5091605;28;20495;-68
2023/01/06 04:39:57;;;;;;;4.70;1.63;;;;;;;17.34;54.87;101485.84;5094215;28;20071;-67
2023/01/06 04:42:22;;;;;;;3.30;1.23;;;;;;;16.51;58.36;101494.13;5094115;28;20486;-68
2023/01/06 04:44:48;;;;;;;3.97;1.43;;;;;;;16.19;59.04;101499.25;5094120;28;20382;-67
2023/01/06 04:47:13;;;;;;;3.00;1.50;;;;;;;17.21;55.41;101493.25;5109166;28;20059;-67
2023/01/06 04:49:38;;;;;;;5.87;1.20;;;;;;;17.49;53.62;101474.88;5092443;28;20708;-68
2023/01/06 04:52:05;;;;;;;2.73;1.23;;;;;;;17.04;57.59;101491.06;5112529;28;20042;-67
2023/01/06 04:54:31;;;;;;;4.93;1.33;;;;;;;17.14;55.99;101479.34;5093283;28;20361;-68
2023/01/06 04:56:56;;;;;;;13.43;2.03;;;;;;;17.92;54.40;101484.19;5109884;28;20036;-67
2023/01/06 04:59:22;;;;;;;3.67;1.57;;;;;;;17.83;54.05;101476.50;5111343;28;20707;-68
2023/01/06 05:01:47;;;;;;;2.87;1.17;;;;;;;17.51;55.66;101477.47;5092379;28;20085;-68
2023/01/06 05:04:12;;;;;;;3.00;1.97;;;;;;;17.49;55.87;101471.34;5103056;27;20031;-67
2023/01/06 05:06:38;;;;;;;4.17;1.60;;;;;;;17.36;55.94;101463.75;5097713;28;20549;-68
2023/01/06 05:09:04;;;;;;;5.97;1.50;;;;;;;17.54;57.22;101467.63;5112181;28;20390;-68
2023/01/06 05:11:30;;;;;;;6.37;1.60;;;;;;;17.37;58.64;101476.06;5093447;28;20118;-68
2023/01/06 05:13:56;;;;;;;1.87;1.40;;;;;;;16.50;62.09;101472.16;5093384;28;20198;-68
2023/01/06 05:16:33;;;;;;;2.23;1.50;;;;;;;16.81;61.26;101481.09;5109119;28;20027;-68
2023/01/06 05:18:59;;;;;;;3.20;1.50;;;;;;;17.77;57.77;101456.38;5115328;27;20548;-68
2023/01/06 05:21:27;;;;;;;2.47;1.67;;;;;;;17.09;59.72;101461.00;5092743;28;20027;-68
2023/01/06 05:23:53;;;;;;;4.50;1.40;;;;;;;16.98;61.63;101476.28;5112050;28;20034;-68
2023/01/06 05:26:21;;;;;;;2.47;1.40;;;;;;;16.79;62.04;101474.06;5107915;28;20156;-67
2023/01/06 05:28:47;;;;;;;4.33;1.40;;;;;;;16.69;62.47;101488.41;5092824;28;20544;-68
2023/01/06 05:31:13;;;;;;;2.00;1.60;;;;;;;17.69;59.98;101471.63;5111211;27;20047;-68
2023/01/06 05:33:39;;;;;;;3.60;1.80;;;;;;;17.48;59.19;101472.28;5093237;28;20106;-68
2023/01/06 05:36:08;;;;;;;2.33;1.70;;;;;;;17.57;58.53;101457.00;5109662;27;20115;-67
2023/01/06 05:38:34;;;;;;;3.33;2.07;;;;;;;16.51;64.41;101473.88;5109733;28;20065;-67
2023/01/06 05:41:00;;;;;;;3.20;1.50;;;;;;;15.74;66.45;101465.97;5092916;28;20533;-67
2023/01/06 05:43:26;;;;;;;5.53;2.03;;;;;;;17.07;63.02;101478.63;5092249;28;20023;-67
2023/01/06 05:45:53;;;;;;;4.10;1.80;;;;;;;16.76;64.07;101479.44;5113229;27;20015;-67
2023/01/06 05:48:19;;;;;;;2.10;1.60;;;;;;;16.18;64.91;101475.56;5111364;28;20023;-67
2023/01/06 05:50:45;;;;;;;5.77;1.70;;;;;;;17.13;64.17;101467.91;5092561;28;20016;-68
2023/01/06 05:53:10;;;;;;;7.80;1.97;;;;;;;17.26;62.63;101478.16;5093005;28;20391;-67
2023/01/06 05:55:35;;;;;;;4.73;1.53;;;;;;;16.26;66.12;101468.34;5090130;28;20122;-68
2023/01/06 05:58:01;;;;;;;3.37;1.80;;;;;;;17.79;60.88;101473.09;5111684;27;20023;-67
2023/01/06 06:00:26;;;;;;;3.17;1.53;;;;;;;17.38;60.43;101467.25;5092205;28;20047;-67
2023/01/06 06:02:52;;;;;;;2.47;1.53;;;;;;;17.11;61.13;101477.66;5088780;28;20052;-67
2023/01/06 06:05:17;;;;;;;4.70;1.70;;;;;;;16.37;65.18;101484.78;5089179;28;20027;-67
2023/01/06 06:07:43;;;;;;;4.17;1.77;;;;;;;17.42;60.35;101479.44;5087547;28;20505;-67
2023/01/06 06:10:08;;;;;;;2.87;1.60;;;;;;;16.64;65.88;101482.38;5087674;28;20031;-68
2023/01/06 06:12:34;;;;;;;3.73;2.00;;;;;;;17.16;63.85;101477.53;5108789;28;20088;-67
2023/01/06 06:15:00;;;;;;;4.87;2.00;;;;;;;15.97;67.25;101492.75;5110082;28;20023;-67
2023/01/06 06:17:26;;;;;;;4.60;1.90;;;;;;;17.14;65.92;101479.34;5090375;28;20456;-68
2023/01/06 06:19:51;;;;;;;3.13;1.83;;;;;;;16.48;65.97;101479.25;5089164;28;20139;-67
2023/01/06 06:22:16;;;;;;;3.73;1.80;;;;;;;16.36;68.04;101490.09;5090354;28;20508;-68
2023/01/06 06:24:42;;;;;;;7.77;2.10;;;;;;;17.45;62.39;101474.06;5090400;28;20023;-68
2023/01/06 06:27:07;;;;;;;6.03;2.40;;;;;;;17.34;62.40;101486.72;5087624;28;20024;-68
2023/01/06 06:29:33;;;;;;;4.47;2.60;;;;;;;16.33;68.48;101485.75;5089230;28;20024;-68
2023/01/06 06:31:58;;;;;;;5.10;2.30;;;;;;;17.04;67.36;101486.66;5088600;28;20463;-68
2023/01/06 06:34:23;;;;;;;7.77;2.60;;;;;;;16.75;68.97;101509.38;5090270;28;20114;-68
2023/01/06 06:36:49;;;;;;;5.00;3.00;;;;;;;16.36;66.83;101495.38;5088574;28;20113;-68
2023/01/06 06:39:14;;;;;;;5.87;2.50;;;;;;;17.33;66.83;101510.56;5085257;28;20384;-68
2023/01/06 06:41:39;;;;;;;3.77;2.93;;;;;;;17.13;65.12;101536.59;5091625;28;20059;-67
2023/01/06 06:44:05;;;;;;;4.83;2.97;;;;;;;17.05;66.76;101538.56;5094772;28;20089;-68
2023/01/06 06:46:30;;;;;;;3.73;2.60;;;;;;;16.37;70.45;101550.72;5092104;28;20295;-68
2023/01/06 06:48:56;;;;;;;3.97;3.00;;;;;;;18.06;63.50;101544.59;5093141;28;20048;-68
2023/01/06 06:51:22;;;;;;;5.13;2.90;;;;;;;17.30;63.91;101565.19;5095944;28;20135;-68
2023/01/06 06:53:49;;;;;;;5.87;3.17;;;;;;;17.22;66.68;101566.31;5112915;28;20484;-68
2023/01/06 06:56:18;;;;;;;4.33;3.57;;;;;;;16.83;67.93;101558.47;5107425;28;20047;-68
2023/01/06 06:58:43;;;;;;;5.20;3.70;;;;;;;18.35;61.31;101550.78;5091781;28;20048;-68
2023/01/06 07:01:11;;;;;;;6.23;3.80;;;;;;;17.09;64.45;101550.78;5094570;28;20112;-69
2023/01/06 07:03:37;;;;;;;7.17;3.93;;;;;;;18.39;58.60;101547.13;5113883;28;20028;-69
2023/01/06 07:06:05;;;;;;;4.23;3.63;;;;;;;17.70;62.06;101552.66;5111576;28;20536;-69
2023/01/06 07:08:33;;;;;;;4.60;3.50;;;;;;;17.27;63.63;101560.00;5092394;28;20479;-68
2023/01/06 07:10:59;;;;;;;7.43;3.77;;;;;;;17.48;63.11;101554.19;5104501;27;20119;-68
2023/01/06 07:13:24;;;;;;;5.37;3.10;;;;;;;17.05;63.05;101559.69;5093017;28;20073;-69
2023/01/06 07:15:50;;;;;;;3.90;2.43;;;;;;;17.18;64.42;101569.94;5113026;28;20020;-68
2023/01/06 07:18:15;;;;;;;6.50;2.40;;;;;;;16.82;63.66;101575.22;5092500;27;20522;-68
2023/01/06 07:20:47;;;;;;;7.00;2.67;;;;;;;16.53;66.16;101587.34;5092823;28;20019;-68
2023/01/06 07:23:12;;;;;;;11.25;3.03;;;;;;;17.68;59.34;101580.94;5094553;28;20059;-69
2023/01/06 07:25:38;;;;;;;4.97;2.20;;;;;;;17.33;60.59;101597.75;5096074;28;20156;-68
2023/01/06 07:28:05;;;;;;;6.93;2.03;;;;;;;17.23;61.92;101603.25;5089898;28;20023;-68
2023/01/06 07:30:31;;;;;;;8.33;2.10;;;;;;;17.84;59.84;101601.66;5108864;27;20326;-68
2023/01/06 07:32:57;;;;;;;11.47;2.73;;;;;;;17.43;61.29;101613.31;5095204;28;20019;-68
2023/01/06 07:35:22;;;;;;;10.43;2.00;;;;;;;17.72;60.07;101613.44;5113025;27;20379;-68
2023/01/06 07:37:47;;;;;;;10.60;2.10;;;;;;;16.88;62.36;101615.50;5112709;27;20485;-68
2023/01/06 07:40:13;;;;;;;11.03;2.57;;;;;;;18.03;59.69;101612.59;5093659;28;20059;-68
2023/01/06 07:42:38;;;;;;;14.17;1.80;;;;;;;17.30;58.61;101622.47;5093815;28;20031;-68
2023/01/06 07:45:05;;;;;;;16.50;2.50;;;;;;;17.21;60.98;101625.34;5112191;28;20031;-68
2023/01/06 07:47:31;;;;;;;10.13;2.63;;;;;;;17.76;58.06;101625.66;5093816;28;20031;-68
2023/01/06 07:49:56;;;;;;;20.07;2.47;;;;;;;18.52;56.42;101621.72;5113562;28;20027;-69
2023/01/06 07:52:21;;;;;;;15.77;2.27;;;;;;;16.93;60.66;101645.38;5113463;28;20023;-68
2023/01/06 07:54:47;;;;;;;16.83;2.23;;;;;;;17.77;58.91;101644.13;5111698;28;20038;-68
2023/01/06 07:57:12;;;;;;;16.53;2.53;;;;;;;17.25;59.97;101633.13;5092403;28;20038;-69
2023/01/06 07:59:37;;;;;;;16.57;2.00;;;;;;;18.34;57.80;101639.03;5099931;27;20019;-69
2023/01/06 08:02:03;;;;;;;15.77;2.40;;;;;;;18.40;54.89;101637.97;5131813;27;20043;-68
2023/01/06 08:04:28;;;;;;;9.67;1.90;;;;;;;17.50;56.20;101644.84;5109454;27;20466;-68
2023/01/06 08:06:54;;;;;;;20.40;2.47;;;;;;;17.92;57.75;101639.34;5115551;27;20019;-68
2023/01/06 08:09:19;;;;;;;17.07;2.47;;;;;;;17.74;55.84;101638.06;5111584;27;20032;-68
2023/01/06 08:11:44;;;;;;;22.23;2.93;;;;;;;16.92;59.13;101646.25;5093755;28;20161;-68
2023/01/06 08:14:11;;;;;;;10.70;2.00;;;;;;;17.93;54.69;101665.75;5110846;28;20102;-68
2023/01/06 08:16:38;;;;;;;16.13;2.60;;;;;;;17.80;55.28;101678.44;5111585;28;20439;-68
2023/01/06 08:19:03;;;;;;;20.10;3.33;;;;;;;18.14;54.07;101680.16;5093847;28;20019;-68
2023/01/06 08:21:29;;;;;;;14.33;2.30;;;;;;;17.55;55.17;101695.84;5112672;28;20419;-68
2023/01/06 08:23:54;;;;;;;21.30;2.20;;;;;;;17.64;54.48;101695.59;5093114;28;20072;-68
2023/01/06 08:26:19;;;;;;;13.03;2.00;;;;;;;18.17;52.45;101699.50;5091719;28;20038;-68
2023/01/06 08:28:45;;;;;;;21.50;2.23;;;;;;;18.39;52.58;101699.75;5112654;28;20111;-68
2023/01/06 08:31:13;;;;;;;16.53;2.80;;;;;;;16.05;60.21;101707.88;5100036;27;20059;-68
2023/01/06 08:33:39;;;;;;;15.43;2.77;;;;;;;17.81;53.98;101714.50;5089982;28;20035;-68
2023/01/06 08:36:07;;;;;;;15.20;2.20;;;;;;;17.99;51.76;101708.81;5091488;28;20024;-68
2023/01/06 08:38:34;;;;;;;10.50;2.23;;;;;;;17.84;53.02;101715.34;5093098;27;20031;-68
2023/01/06 08:41:00;;;;;;;17.07;2.20;;;;;;;17.87;52.20;101717.91;5122867;27;20019;-68
2023/01/06 08:43:26;;;;;;;18.07;2.07;;;;;;;17.63;51.14;101720.28;5092129;28;20030;-68
2023/01/06 08:45:52;;;;;;;13.57;2.20;;;;;;;18.22;50.39;101718.78;5090565;28;20023;-68
2023/01/06 08:48:18;;;;;;;10.93;1.77;;;;;;;18.24;50.00;101717.78;5092753;28;20039;-68
2023/01/06 08:50:44;;;;;;;14.97;2.00;;;;;;;18.51;49.14;101719.72;5094301;28;20023;-68
2023/01/06 08:53:10;;;;;;;11.57;2.10;;;;;;;18.01;49.84;101730.78;5093548;28;20550;-68
2023/01/06 08:55:40;;;;;;;11.40;2.10;;;;;;;18.42;48.75;101716.44;5111653;28;20141;-68
2023/01/06 08:58:07;;;;;;;9.87;1.83;;;;;;;18.94;47.95;101723.75;5092825;28;20031;-68
2023/01/06 09:00:32;;;;;;;12.90;2.03;;;;;;;17.43;51.60;101739.28;5111614;28;20382;-68
2023/01/06 09:02:58;;;;;;;13.13;2.53;;;;;;;18.65;48.52;101733.41;5112367;28;20062;-68
2023/01/06 09:05:23;;;;;;;15.27;2.20;;;;;;;18.58;48.56;101734.50;5091667;28;20027;-68
2023/01/06 09:07:51;;;;;;;13.53;2.40;;;;;;;17.31;52.04;101740.47;5092533;28;20024;-68
2023/01/06 09:10:18;;;;;;;12.17;1.93;;;;;;;17.33;51.73;101746.56;5093712;28;20051;-68
2023/01/06 09:12:44;;;;;;;12.03;1.93;;;;;;;16.73;54.80;101751.41;5093543;28;20027;-68
2023/01/06 09:15:10;;;;;;;25.73;3.00;;;;;;;17.42;53.05;101754.28;5111249;28;20035;-68
2023/01/06 09:17:35;;;;;;;11.17;2.23;;;;;;;16.81;54.33;101763.56;5092382;28;20031;-68
2023/01/06 09:20:01;;;;;;;16.47;2.23;;;;;;;16.47;53.47;101772.16;5111648;28;20391;-68
2023/01/06 09:22:26;;;;;;;7.47;1.57;;;;;;;16.26;55.45;101774.31;5111838;28;20027;-68
2023/01/06 09:24:52;;;;;;;15.03;1.33;;;;;;;16.72;53.59;101768.13;5110986;28;20313;-68
2023/01/06 09:27:17;;;;;;;7.30;1.10;;;;;;;16.92;52.47;101764.22;5089855;28;20393;-68
2023/01/06 09:29:42;;;;;;;6.57;0.93;;;;;;;17.61;51.01;101764.38;5092943;28;20028;-68
2023/01/06 09:32:08;;;;;;;11.60;1.53;;;;;;;17.21;50.47;101768.84;5112162;28;20035;-68
2023/01/06 09:34:33;;;;;;;9.00;1.30;;;;;;;16.53;51.89;101790.53;5091478;28;20701;-68
2023/01/06 09:36:59;;;;;;;9.73;1.53;;;;;;;18.01;47.69;101779.31;5110721;28;20024;-68
2023/01/06 09:39:24;;;;;;;10.17;1.20;;;;;;;18.05;47.43;101773.03;5111690;28;20126;-68
2023/01/06 09:42:35;;;;;;;7.77;1.23;;;;;;;18.29;46.45;101783.84;5111269;28;20028;-68
2023/01/06 09:45:19;;;;;;;11.57;2.80;;;;;;;18.96;45.28;101785.50;5090937;28;20034;-68
2023/01/06 09:47:57;;;;;;;7.80;1.67;;;;;;;19.25;44.27;101797.00;5088166;28;20182;-68
2023/01/06 09:50:31;;;;;;;7.70;1.40;;;;;;;18.95;44.93;101799.66;5109634;28;20076;-68
2023/01/06 09:53:07;;;;;;;6.30;1.20;;;;;;;18.48;45.65;101805.38;5082886;28;20035;-68
2023/01/06 09:55:42;;;;;;;10.10;2.33;;;;;;;17.16;48.41;101806.84;5089321;28;20119;-68
2023/01/06 09:58:22;;;;;;;6.67;1.80;;;;;;;16.77;50.42;101812.91;5069917;28;20039;-67
2023/01/06 10:00:51;;;;;;;10.17;1.53;;;;;;;18.80;45.39;101807.09;5079283;28;20019;-67
2023/01/06 10:03:24;;;;;;;7.80;1.50;;;;;;;17.98;47.58;101803.16;5089971;28;20390;-67
2023/01/06 10:06:10;;;;;;;8.40;1.30;;;;;;;17.66;48.28;101796.88;5087436;28;20016;-68
2023/01/06 10:09:07;;;;;;;13.57;1.67;;;;;;;17.12;48.87;101799.00;5108191;28;20046;-67
2023/01/06 10:11:53;;;;;;;8.17;1.07;;;;;;;16.99;49.63;101802.78;5109778;28;20119;-69
2023/01/06 10:14:51;;;;;;;5.43;0.80;;;;;;;17.02;47.66;101805.41;5094344;28;20509;-68
2023/01/06 10:17:32;;;;;;;7.07;1.20;;;;;;;17.54;47.30;101805.09;5091244;28;20066;-69
2023/01/06 10:20:29;;;;;;;6.67;1.00;;;;;;;18.53;44.93;101811.41;5109738;28;20101;-69
2023/01/06 10:23:25;;;;;;;5.80;1.43;;;;;;;17.34;47.91;101806.44;5091453;28;20032;-68
2023/01/06 10:26:00;;;;;;;6.47;1.10;;;;;;;18.28;46.64;101805.91;5091592;28;20035;-68
2023/01/06 10:28:51;;;;;;;5.70;1.27;;;;;;;19.10;44.42;101799.19;5092139;28;20104;-68
2023/01/06 10:31:22;;;;;;;8.50;1.30;;;;;;;17.93;46.40;101813.00;5108394;28;20486;-68
2023/01/06 10:33:53;;;;;;;10.00;1.23;;;;;;;18.60;46.27;101812.09;5109851;28;20462;-68
2023/01/06 10:36:41;;;;;;;6.63;1.17;;;;;;;19.82;43.48;101808.44;5090793;28;20062;-67
2023/01/06 10:39:15;;;;;;;6.87;1.53;;;;;;;19.59;43.83;101806.50;5110337;28;20032;-67
2023/01/06 10:44:48;;;;;;;7.73;1.53;;;;;;;20.61;41.51;101803.06;5095469;28;20485;-67
2023/01/06 10:47:26;;;;;;;11.68;1.65;;;;;;;21.00;40.87;101802.50;5088436;28;20681;-68
2023/01/06 10:49:52;;;;;;;9.63;1.23;;;;;;;20.77;40.95;101808.69;5091083;28;20023;-68
2023/01/06 10:52:19;;;;;;;11.07;1.63;;;;;;;20.02;41.63;101813.09;5090338;28;20039;-68
2023/01/06 10:54:46;;;;;;;6.28;1.08;;;;;;;18.56;44.47;101807.78;5108166;28;20037;-68
2023/01/06 10:57:29;;;;;;;7.03;1.20;;;;;;;20.00;42.54;101806.94;5091845;28;20031;-67
2023/01/06 11:00:14;;;;;;;12.45;1.55;;;;;;;20.61;41.90;101803.06;5107251;28;20024;-68
2023/01/06 11:02:45;;;;;;;10.45;1.75;;;;;;;20.55;41.32;101808.56;5085328;28;20131;-68
2023/01/06 11:05:16;;;;;;;11.13;1.25;;;;;;;20.33;42.16;101804.03;5088258;28;20036;-68
2023/01/06 11:07:48;;;;;;;8.75;1.10;;;;;;;20.21;42.23;101817.75;5087549;28;20038;-68
2023/01/06 11:10:29;;;;;;;7.88;1.35;;;;;;;19.96;43.34;101810.63;5080189;28;20113;-68
2023/01/06 11:12:57;;;;;;;10.88;1.35;;;;;;;19.41;44.00;101803.56;5087411;28;20028;-68
2023/01/06 11:15:27;;;;;;;3.90;0.95;;;;;;;19.46;44.67;101806.03;5087371;28;20024;-68
2023/01/06 11:17:53;;;;;;;7.78;1.90;;;;;;;20.05;43.89;101797.03;5078195;28;20047;-68
2023/01/06 11:20:18;;;;;;;7.78;1.30;;;;;;;20.24;43.51;101799.94;5085197;28;20403;-68
2023/01/06 11:22:44;;;;;;;5.80;1.17;;;;;;;19.67;43.95;101804.47;5087670;28;20081;-68
2023/01/06 11:25:29;;;;;;;13.05;1.67;;;;;;;20.14;43.25;101798.50;5085094;28;20101;-67
2023/01/06 11:28:18;;;;;;;7.55;1.10;;;;;;;19.52;44.41;101799.66;5081764;28;20028;-67
2023/01/06 11:30:52;;;;;;;7.78;1.20;;;;;;;19.43;44.58;101796.41;5089234;28;20032;-67
2023/01/06 11:33:26;;;;;;;6.07;1.05;;;;;;;20.78;42.36;101790.00;5089818;28;20035;-67
2023/01/06 11:35:53;;;;;;;7.40;1.52;;;;;;;21.19;40.96;101790.22;5090839;28;20024;-67
2023/01/06 11:38:20;;;;;;;8.57;1.90;;;;;;;20.33;42.01;101782.78;5086926;28;20024;-67
2023/01/06 11:40:47;;;;;;;4.82;1.70;;;;;;;19.78;42.91;101785.56;5088432;28;20055;-67